Sumneytown, PA (18084)

3:09 AM EDT on September 01, 2016 (GMT -0400)
Salford | | Change Station

Elev 226 ft 40.29 °N, 75.45 °W | Updated 30 seconds ago

Light Rain
Light Rain Mist
70.5 °F
Feels Like 70.5 °F
N
0.0
Wind Variable Wind from ESE

Today
High -- | Low -- °F
--% Chance of Precip.
Yesterday
High -- | Low -- °F
Precip. -- in
Pressure 29.89 in
Visibility 6.0 miles
Clouds Mostly Cloudy 2700 ft
Mostly Cloudy 4300 ft
Overcast 5000 ft
Dew Point 67 °F
Humidity 89%
Rainfall 0.75 in
Snow Depth Not available.
6:29 AM 7:32 PM
Waning Crescent, 0% visible
METAR KPTW 010654Z AUTO 34005KT 6SM -RA BR BKN027 BKN043 OVC050 22/21 A2990 RMK AO2 LTG DSNT E AND S RAE06B40 SLP121 P0001 T02170211
Pressure 29.89 in
Visibility 6.0 miles
Clouds Mostly Cloudy 2700 ft
Mostly Cloudy 4300 ft
Overcast 5000 ft
Dew Point 67 °F
Humidity 89%
Rainfall 0.75 in
Snow Depth Not available.
6:29 AM 7:32 PM
Waning Crescent, 0% visible
METAR KPTW 010654Z AUTO 34005KT 6SM -RA BR BKN027 BKN043 OVC050 22/21 A2990 RMK AO2 LTG DSNT E AND S RAE06B40 SLP121 P0001 T02170211

10-Day Weather Forecast

Almanac

Astronomy

Sep. 01, 2016 Rise Set
Actual Time
Civil Twilight
Nautical Twilight
Astronomical Twilight
Moon
Length of Visible Light
Length of Day
Tomorrow will be .
, % of the Moon is Illuminated

Today's Extremes

State Highs State Lows

Community

WunderPhotos

Upload Photos

1,936,314 photos uploaded!

WunderBlog® & News

Nearby

Air Quality

  Air Quality AQ Index Pollutant
Not available.

Snow Depth

Station Depth Elevation

Earthquake Activity

City Distance Mag. Time & Date
Minimum magnitude displayed is 2.5.

Coastal Water Temperatures

Place Temperature

Stations

Nearby Weather Stations

Station Location Temp. Windchill Dew Point Humidity Wind Precip. Elev Updated Type
                   

Watches & Warnings

There are currently no watches in effect.